createdAt,value
2023-01-11T00:01:10.627Z,12.40
2023-01-11T00:03:39.309Z,12.90
2023-01-11T00:06:08.355Z,12.40
2023-01-11T00:08:37.387Z,13.50
2023-01-11T00:11:12.465Z,12.80
2023-01-11T00:13:41.521Z,13.70
2023-01-11T00:16:10.261Z,12.90
2023-01-11T00:18:39.199Z,12.80
2023-01-11T00:21:08.361Z,13.70
2023-01-11T00:23:37.627Z,13.00
2023-01-11T00:26:07.080Z,12.80
2023-01-11T00:28:35.953Z,12.80
2023-01-11T00:31:05.169Z,11.70
2023-01-11T00:33:34.552Z,12.70
2023-01-11T00:36:03.387Z,11.00
2023-01-11T00:38:44.120Z,13.10
2023-01-11T00:41:32.496Z,11.70
2023-01-11T00:44:20.011Z,11.50
2023-01-11T00:47:07.272Z,12.00
2023-01-11T00:49:36.221Z,12.60
2023-01-11T00:52:11.395Z,11.20
2023-01-11T00:54:41.008Z,11.10
2023-01-11T00:57:10.016Z,11.70
2023-01-11T00:59:39.599Z,11.90
2023-01-11T01:02:09.307Z,11.80
2023-01-11T01:04:38.690Z,11.20
2023-01-11T01:07:08.001Z,11.50
2023-01-11T01:09:36.698Z,10.60
2023-01-11T01:12:07.046Z,11.80
2023-01-11T01:14:36.307Z,12.60
2023-01-11T01:17:09.067Z,12.20
2023-01-11T01:19:38.690Z,12.70
2023-01-11T01:22:07.445Z,12.00
2023-01-11T01:24:36.268Z,12.00
2023-01-11T01:27:04.925Z,12.40
2023-01-11T01:29:33.680Z,11.80
2023-01-11T01:32:02.307Z,12.00
2023-01-11T01:34:31.030Z,11.90
2023-01-11T01:36:59.673Z,12.80
2023-01-11T01:39:28.466Z,11.10
2023-01-11T01:41:57.584Z,11.20
2023-01-11T01:44:45.102Z,11.70
2023-01-11T01:47:14.126Z,12.00
2023-01-11T01:49:43.405Z,10.10
2023-01-11T01:52:12.693Z,11.20
2023-01-11T01:54:43.502Z,11.70
2023-01-11T01:57:22.596Z,10.90
2023-01-11T01:59:52.518Z,11.50
2023-01-11T02:02:24.191Z,11.10
2023-01-11T02:04:56.257Z,10.60
2023-01-11T02:07:31.087Z,11.30
2023-01-11T02:10:04.013Z,12.00
2023-01-11T02:15:02.344Z,10.30
2023-01-11T02:17:31.011Z,10.60
2023-01-11T02:20:18.675Z,9.80
2023-01-11T02:23:05.764Z,10.30
2023-01-11T02:25:37.503Z,10.40
2023-01-11T02:28:25.319Z,10.30
2023-01-11T02:31:00.639Z,10.20
2023-01-11T02:33:38.765Z,9.20
2023-01-11T02:36:22.881Z,9.90
2023-01-11T02:38:56.091Z,9.00
2023-01-11T02:41:50.557Z,9.10
2023-01-11T02:44:42.717Z,9.60
2023-01-11T02:47:18.361Z,9.20
2023-01-11T02:49:54.613Z,9.20
2023-01-11T02:52:36.237Z,9.10
2023-01-11T02:55:07.686Z,9.10
2023-01-11T02:57:39.250Z,9.30
2023-01-11T03:00:08.437Z,9.20
2023-01-11T03:02:37.169Z,9.90
2023-01-11T03:05:11.388Z,8.70
2023-01-11T03:07:40.006Z,8.90
2023-01-11T03:10:08.684Z,8.60
2023-01-11T03:12:52.725Z,8.80
2023-01-11T03:15:44.813Z,8.80
2023-01-11T03:18:16.240Z,7.90
2023-01-11T03:20:49.138Z,8.60
2023-01-11T03:23:40.887Z,8.10
2023-01-11T03:26:39.071Z,8.50
2023-01-11T03:29:19.773Z,8.40
2023-01-11T03:31:52.900Z,8.50
2023-01-11T03:34:24.773Z,8.80
2023-01-11T03:36:56.611Z,7.40
2023-01-11T03:39:38.156Z,7.80
2023-01-11T03:42:08.219Z,7.40
2023-01-11T03:44:41.803Z,7.70
2023-01-11T03:47:12.868Z,7.80
2023-01-11T03:49:46.801Z,7.70
2023-01-11T03:52:16.607Z,7.90
2023-01-11T03:54:45.626Z,7.40
2023-01-11T03:57:14.298Z,7.00
2023-01-11T03:59:43.144Z,8.80
2023-01-11T04:02:19.132Z,8.90
2023-01-11T04:04:48.135Z,8.50
2023-01-11T04:07:18.699Z,8.80
2023-01-11T04:09:47.416Z,8.30
2023-01-11T04:12:16.321Z,8.10
2023-01-11T04:14:45.037Z,8.60
2023-01-11T04:17:13.890Z,8.70
2023-01-11T04:19:42.662Z,8.80
2023-01-11T04:22:11.375Z,8.90
2023-01-11T04:24:40.047Z,9.60
2023-01-11T04:27:08.781Z,8.80
2023-01-11T04:29:37.489Z,8.90
2023-01-11T04:32:06.192Z,8.00
2023-01-11T04:34:34.875Z,8.10
2023-01-11T04:37:03.624Z,9.30
2023-01-11T04:39:32.411Z,8.90
2023-01-11T04:42:19.587Z,8.80
2023-01-11T04:44:49.447Z,9.00
2023-01-11T04:47:19.251Z,8.70
2023-01-11T04:49:48.032Z,7.30
2023-01-11T04:52:17.868Z,7.10
2023-01-11T04:54:48.822Z,8.10
2023-01-11T04:57:17.836Z,7.90
2023-01-11T04:59:46.946Z,6.40
2023-01-11T05:02:15.885Z,7.70
2023-01-11T05:04:44.811Z,7.90
2023-01-11T05:07:13.711Z,6.90
2023-01-11T05:09:42.498Z,6.70
2023-01-11T05:12:11.177Z,7.30
2023-01-11T05:14:40.031Z,6.40
2023-01-11T05:17:12.767Z,7.50
2023-01-11T05:19:41.950Z,6.40
2023-01-11T05:22:10.658Z,6.50
2023-01-11T05:24:39.361Z,6.40
2023-01-11T05:27:08.102Z,6.40
2023-01-11T05:29:36.792Z,6.10
2023-01-11T05:32:05.849Z,6.20
2023-01-11T05:34:34.544Z,6.50
2023-01-11T05:37:03.211Z,5.10
2023-01-11T05:39:31.950Z,5.60
2023-01-11T05:42:00.658Z,5.50
2023-01-11T05:44:47.865Z,4.50
2023-01-11T05:47:16.643Z,4.90
2023-01-11T05:49:45.364Z,4.20
2023-01-11T05:52:14.121Z,4.50
2023-01-11T05:54:42.829Z,4.20
2023-01-11T05:57:12.023Z,4.40
2023-01-11T05:59:40.839Z,3.70
2023-01-11T06:02:09.568Z,4.50
2023-01-11T06:04:38.356Z,4.50
2023-01-11T06:07:09.891Z,4.70
2023-01-11T06:09:38.605Z,4.50
2023-01-11T06:12:07.423Z,4.60
2023-01-11T06:14:38.163Z,4.50
2023-01-11T06:17:07.149Z,4.30
2023-01-11T06:19:35.947Z,4.30
2023-01-11T06:22:04.647Z,4.00
2023-01-11T06:24:33.384Z,4.40
2023-01-11T06:27:02.043Z,3.60
2023-01-11T06:29:30.728Z,8.20
2023-01-11T06:31:59.504Z,4.00
2023-01-11T06:34:28.184Z,3.80
2023-01-11T06:36:56.994Z,3.90
2023-01-11T06:39:25.748Z,3.70
2023-01-11T06:41:54.451Z,3.70
2023-01-11T06:44:23.215Z,4.20
2023-01-11T06:46:51.902Z,3.30
2023-01-11T06:49:20.596Z,3.70
2023-01-11T06:51:49.975Z,3.70
2023-01-11T06:54:22.998Z,5.20
2023-01-11T06:56:51.867Z,3.50
2023-01-11T06:59:20.663Z,3.40
2023-01-11T07:01:49.351Z,4.10
2023-01-11T07:04:19.811Z,3.70
2023-01-11T07:06:48.526Z,4.00
2023-01-11T07:09:17.253Z,3.60
2023-01-11T07:11:46.229Z,4.50
2023-01-11T07:14:20.063Z,3.60
2023-01-11T07:16:48.743Z,3.90
2023-01-11T07:19:18.494Z,4.20
2023-01-11T07:21:47.170Z,3.90
2023-01-11T07:24:15.909Z,4.10
2023-01-11T07:26:44.800Z,3.70
2023-01-11T07:29:13.768Z,3.00
2023-01-11T07:31:42.606Z,3.80
2023-01-11T07:34:11.431Z,3.90
2023-01-11T07:36:40.365Z,4.20
2023-01-11T07:39:09.271Z,3.90
2023-01-11T07:41:56.910Z,4.60
2023-01-11T07:44:25.726Z,3.80
2023-01-11T07:46:54.693Z,3.60
2023-01-11T07:49:23.648Z,3.50
2023-01-11T07:51:52.377Z,3.90
2023-01-11T07:54:21.074Z,3.70
2023-01-11T07:56:51.054Z,3.30
2023-01-11T07:59:19.757Z,3.70
2023-01-11T08:01:48.427Z,3.80
2023-01-11T08:04:17.218Z,4.00
2023-01-11T08:06:45.942Z,4.00
2023-01-11T08:09:14.692Z,4.20
2023-01-11T08:12:01.984Z,3.50
2023-01-11T08:14:39.345Z,3.60
2023-01-11T08:17:09.656Z,2.80
2023-01-11T08:19:38.901Z,3.30
2023-01-11T08:22:07.958Z,2.80
2023-01-11T08:24:36.786Z,3.50
2023-01-11T08:27:05.640Z,4.00
2023-01-11T08:29:34.499Z,3.40
2023-01-11T08:32:03.306Z,3.20
2023-01-11T08:34:33.773Z,3.50
2023-01-11T08:37:03.257Z,4.10
2023-01-11T08:39:32.140Z,3.20
2023-01-11T08:42:03.006Z,3.50
2023-01-11T08:44:35.111Z,3.20
2023-01-11T08:47:04.082Z,3.10
2023-01-11T08:49:32.888Z,2.80
2023-01-11T08:52:01.601Z,3.00
2023-01-11T08:54:30.349Z,3.00
2023-01-11T08:56:59.070Z,2.90
2023-01-11T08:59:27.737Z,3.10
2023-01-11T09:01:56.659Z,3.20
2023-01-11T09:04:26.057Z,3.60
2023-01-11T09:06:54.869Z,3.20
2023-01-11T09:09:23.667Z,3.50
2023-01-11T09:11:55.165Z,3.30
2023-01-11T09:14:25.273Z,3.10
2023-01-11T09:16:54.525Z,3.40
2023-01-11T09:19:23.856Z,2.90
2023-01-11T09:21:53.351Z,2.90
2023-01-11T09:24:22.082Z,2.80
2023-01-11T09:26:50.831Z,2.70
2023-01-11T09:29:19.804Z,2.80
2023-01-11T09:31:48.580Z,2.80
2023-01-11T09:34:17.393Z,3.00
2023-01-11T09:36:48.705Z,3.20
2023-01-11T09:39:20.451Z,3.00
2023-01-11T09:42:08.988Z,2.70
2023-01-11T09:44:44.058Z,2.90
2023-01-11T09:47:17.285Z,3.10
2023-01-11T09:49:52.310Z,3.10
2023-01-11T09:52:39.521Z,3.10
2023-01-11T09:55:15.344Z,3.20
2023-01-11T09:57:52.058Z,3.00
2023-01-11T10:00:40.305Z,3.30
2023-01-11T10:03:32.996Z,3.00
2023-01-11T10:06:09.187Z,3.30
2023-01-11T10:18:28.616Z,3.20
2023-01-11T10:18:40.005Z,3.50
2023-01-11T10:20:28.911Z,3.40
2023-01-11T10:23:01.005Z,3.50
2023-01-11T10:25:42.633Z,3.90
2023-01-11T10:28:17.459Z,3.80
2023-01-11T10:30:52.178Z,3.40
2023-01-11T10:33:43.242Z,3.70
2023-01-11T10:36:34.664Z,3.50
2023-01-11T10:39:36.372Z,3.20
2023-01-11T10:42:10.447Z,3.60
2023-01-11T10:44:42.304Z,3.10
2023-01-11T10:47:16.453Z,3.70
2023-01-11T10:49:57.249Z,3.30
2023-01-11T10:52:25.988Z,3.30
2023-01-11T10:54:57.358Z,3.80
2023-01-11T10:57:35.010Z,3.60
2023-01-11T11:00:20.852Z,3.50
2023-01-11T11:02:49.580Z,3.80
2023-01-11T11:05:27.607Z,3.90
2023-01-11T11:07:56.301Z,3.90
2023-01-11T11:10:31.826Z,3.60
2023-01-11T11:13:19.328Z,3.10
2023-01-11T11:15:56.135Z,3.70
2023-01-11T11:18:25.243Z,4.00
2023-01-11T11:20:54.053Z,3.30
2023-01-11T11:23:24.408Z,4.00
2023-01-11T11:25:56.709Z,3.80
2023-01-11T11:28:25.518Z,4.20
2023-01-11T11:30:58.602Z,3.80
2023-01-11T11:33:39.924Z,4.20
2023-01-11T11:36:09.947Z,3.90
2023-01-11T11:38:40.383Z,4.30
2023-01-11T11:41:13.847Z,4.00
2023-01-11T11:43:44.218Z,4.00
2023-01-11T11:46:19.439Z,4.80
2023-01-11T11:49:10.748Z,4.10
2023-01-11T11:51:40.050Z,3.90
2023-01-11T11:54:27.003Z,3.90
2023-01-11T11:56:57.352Z,3.60
2023-01-11T11:59:28.751Z,3.90
2023-01-11T12:02:05.147Z,3.90
2023-01-11T12:04:48.627Z,4.50
2023-01-11T12:07:22.423Z,3.90
2023-01-11T12:09:57.493Z,3.90
2023-01-11T12:12:29.231Z,4.10
2023-01-11T12:15:06.635Z,4.60
2023-01-11T12:17:35.471Z,4.70
2023-01-11T12:20:24.175Z,4.40
2023-01-11T12:23:09.288Z,4.00
2023-01-11T12:25:45.844Z,4.10
2023-01-11T12:28:33.407Z,4.10
2023-01-11T12:31:02.180Z,3.90
2023-01-11T12:33:34.025Z,3.80
2023-01-11T12:36:08.508Z,4.30
2023-01-11T12:38:52.759Z,3.90
2023-01-11T12:41:50.275Z,3.60
2023-01-11T12:44:37.682Z,3.00
2023-01-11T12:47:24.941Z,3.50
2023-01-11T12:50:03.768Z,3.40
2023-01-11T12:52:44.741Z,3.30
2023-01-11T12:55:22.482Z,3.60
2023-01-11T12:58:01.011Z,3.60
2023-01-11T13:00:35.529Z,3.70
2023-01-11T13:03:19.317Z,3.50
2023-01-11T13:06:07.240Z,3.00
2023-01-11T13:08:40.746Z,3.80
2023-01-11T13:11:35.051Z,3.10
2023-01-11T13:14:13.526Z,3.40
2023-01-11T13:16:48.130Z,3.00
2023-01-11T13:19:21.273Z,3.40
2023-01-11T13:21:55.453Z,3.40
2023-01-11T13:24:27.250Z,3.30
2023-01-11T13:27:04.861Z,3.90
2023-01-11T13:29:33.583Z,3.70
2023-01-11T13:32:07.393Z,3.80
2023-01-11T13:34:40.625Z,3.90
2023-01-11T13:37:28.009Z,3.80
2023-01-11T13:40:35.327Z,3.60
2023-01-11T13:43:04.064Z,4.40
2023-01-11T13:45:37.606Z,3.90
2023-01-11T13:48:12.547Z,4.20
2023-01-11T13:51:01.551Z,3.80
2023-01-11T13:53:37.565Z,3.90
2023-01-11T13:56:18.675Z,4.20
2023-01-11T13:59:06.362Z,4.30
2023-01-11T14:01:38.234Z,4.40
2023-01-11T14:04:26.786Z,5.00
2023-01-11T14:07:08.756Z,4.70
2023-01-11T14:09:44.602Z,4.30
2023-01-11T14:12:34.696Z,4.40
2023-01-11T14:15:06.279Z,4.60
2023-01-11T14:17:38.395Z,4.50
2023-01-11T14:20:07.133Z,4.50
2023-01-11T14:22:38.762Z,4.80
2023-01-11T14:25:07.413Z,4.60
2023-01-11T14:27:39.125Z,5.20
2023-01-11T14:30:14.614Z,5.00
2023-01-11T14:32:56.092Z,4.90
2023-01-11T14:35:35.548Z,5.00
2023-01-11T14:38:16.310Z,5.40
2023-01-11T14:40:45.033Z,5.50
2023-01-11T14:43:27.548Z,5.50
2023-01-11T14:45:56.498Z,5.70
2023-01-11T14:48:34.075Z,6.50
2023-01-11T14:51:17.977Z,6.30
2023-01-11T14:53:52.566Z,7.20
2023-01-11T14:56:40.175Z,5.80
2023-01-11T14:59:26.194Z,6.40
2023-01-11T15:02:07.611Z,6.60
2023-01-11T15:04:38.175Z,6.20
2023-01-11T15:07:24.186Z,5.30
2023-01-11T15:09:56.313Z,5.20
2023-01-11T15:12:37.044Z,5.30
2023-01-11T15:15:18.610Z,5.40
2023-01-11T15:18:12.640Z,5.00
2023-01-11T15:21:13.777Z,5.40
2023-01-11T15:23:54.454Z,4.50
2023-01-11T15:26:23.985Z,5.40
2023-01-11T15:28:54.656Z,4.90
2023-01-11T15:31:34.266Z,4.90
2023-01-11T15:34:04.973Z,4.80
2023-01-11T15:36:54.441Z,4.70
2023-01-11T15:39:41.915Z,5.30
2023-01-11T15:42:16.655Z,5.40
2023-01-11T15:44:48.334Z,5.70
2023-01-11T15:47:32.376Z,4.80
2023-01-11T15:50:12.950Z,5.00
2023-01-11T15:52:50.811Z,5.10
2023-01-11T15:55:38.375Z,5.90
2023-01-11T15:58:23.997Z,5.80
2023-01-11T16:00:52.938Z,5.70
2023-01-11T16:03:29.042Z,5.50
2023-01-11T16:06:04.198Z,6.30
2023-01-11T16:08:38.145Z,6.10
2023-01-11T16:11:09.679Z,6.10
2023-01-11T16:13:42.523Z,6.70
2023-01-11T16:16:20.315Z,5.70
2023-01-11T16:19:00.476Z,6.50
2023-01-11T16:21:31.660Z,6.60
2023-01-11T16:24:10.831Z,6.50
2023-01-11T16:26:40.859Z,6.70
2023-01-11T16:29:25.892Z,6.20
2023-01-11T16:31:56.812Z,5.50
2023-01-11T16:34:27.387Z,6.80
2023-01-11T16:36:57.595Z,6.10
2023-01-11T16:39:28.967Z,6.30
2023-01-11T16:41:57.627Z,6.20
2023-01-11T16:44:33.367Z,5.90
2023-01-11T16:47:18.703Z,6.50
2023-01-11T16:50:09.878Z,6.60
2023-01-11T16:52:58.925Z,6.70
2023-01-11T16:55:30.302Z,6.70
2023-01-11T16:58:01.189Z,6.60
2023-01-11T17:00:38.278Z,6.70
2023-01-11T17:03:26.471Z,6.80
2023-01-11T17:05:56.372Z,7.40
2023-01-11T17:08:26.475Z,7.00
2023-01-11T17:10:56.911Z,6.70
2023-01-11T17:13:52.731Z,7.00
2023-01-11T17:16:29.324Z,7.30
2023-01-11T17:19:00.313Z,6.70
2023-01-11T17:21:30.096Z,7.30
2023-01-11T17:24:00.601Z,7.70
2023-01-11T17:26:31.592Z,7.60
2023-01-11T17:29:00.811Z,7.00
2023-01-11T17:31:32.149Z,7.30
2023-01-11T17:34:16.563Z,7.40
2023-01-11T17:36:45.914Z,6.90
2023-01-11T17:39:28.949Z,6.90
2023-01-11T17:42:17.398Z,6.40
2023-01-11T17:45:05.917Z,6.80
2023-01-11T17:47:34.964Z,7.60
2023-01-11T17:50:03.866Z,7.50
2023-01-11T17:52:38.960Z,7.10
2023-01-11T17:55:18.296Z,7.60
2023-01-11T17:58:06.118Z,7.10
2023-01-11T18:00:34.894Z,7.00
2023-01-11T18:03:15.879Z,7.70
2023-01-11T18:05:45.016Z,7.20
2023-01-11T18:08:19.179Z,7.40
2023-01-11T18:10:49.829Z,8.10
2023-01-11T18:13:31.391Z,7.40
2023-01-11T18:16:00.595Z,7.60
2023-01-11T18:18:41.765Z,7.20
2023-01-11T18:21:25.920Z,7.00
2023-01-11T18:24:10.170Z,6.90
2023-01-11T18:26:40.504Z,6.80
2023-01-11T18:29:44.612Z,6.50
2023-01-11T18:32:14.040Z,6.30
2023-01-11T18:34:44.232Z,6.90
2023-01-11T18:37:13.281Z,7.10
2023-01-11T18:39:42.892Z,6.70
2023-01-11T18:42:15.435Z,6.80
2023-01-11T18:44:45.998Z,6.80
2023-01-11T18:47:16.159Z,6.90
2023-01-11T18:49:45.317Z,7.40
2023-01-11T18:52:14.360Z,7.00
2023-01-11T18:54:43.155Z,7.30
2023-01-11T18:57:11.941Z,6.70
2023-01-11T18:59:40.717Z,7.00
2023-01-11T19:04:55.156Z,7.50
2023-01-11T19:07:25.122Z,8.20
2023-01-11T19:09:59.300Z,7.90
2023-01-11T19:12:28.229Z,7.10
2023-01-11T19:14:57.096Z,7.90
2023-01-11T19:17:28.732Z,7.10
2023-01-11T19:19:57.498Z,7.70
2023-01-11T19:22:26.850Z,8.20
2023-01-11T19:24:55.863Z,7.90
2023-01-11T19:27:24.965Z,7.90
2023-01-11T19:29:54.002Z,7.30
2023-01-11T19:32:25.183Z,7.30
2023-01-11T19:34:58.019Z,7.70
2023-01-11T19:39:56.299Z,7.40
2023-01-11T19:42:25.058Z,7.20
2023-01-11T19:44:54.855Z,7.90
2023-01-11T19:47:23.635Z,7.40
2023-01-11T19:49:56.399Z,8.00
2023-01-11T19:52:25.472Z,7.40
2023-01-11T19:54:55.123Z,8.30
2023-01-11T19:57:24.012Z,7.80
2023-01-11T19:59:52.788Z,7.50
2023-01-11T20:02:22.009Z,8.50
2023-01-11T20:04:50.832Z,8.60
2023-01-11T20:07:20.493Z,8.40
2023-01-11T20:09:49.170Z,8.30
2023-01-11T20:12:17.983Z,8.80
2023-01-11T20:14:46.760Z,8.50
2023-01-11T20:17:20.925Z,8.30
2023-01-11T20:19:54.546Z,8.80
2023-01-11T20:22:24.129Z,8.50
2023-01-11T20:24:52.791Z,9.00
2023-01-11T20:27:21.824Z,9.30
2023-01-11T20:29:50.559Z,8.90
2023-01-11T20:32:39.932Z,8.40
2023-01-11T20:35:08.474Z,9.20
2023-01-11T20:37:37.173Z,9.00
2023-01-11T20:40:06.104Z,8.90
2023-01-11T20:42:34.885Z,9.40
2023-01-11T20:45:03.764Z,8.80
2023-01-11T20:47:32.843Z,9.30
2023-01-11T20:50:01.522Z,8.50
2023-01-11T20:52:30.625Z,9.40
2023-01-11T20:54:59.424Z,9.00
2023-01-11T20:57:29.441Z,8.50
2023-01-11T20:59:58.233Z,8.90
2023-01-11T21:02:27.013Z,9.30
2023-01-11T21:04:57.075Z,8.20
2023-01-11T21:07:25.813Z,8.30
2023-01-11T21:09:54.506Z,8.70
2023-01-11T21:12:23.251Z,8.80
2023-01-11T21:14:51.943Z,8.20
2023-01-11T21:17:21.085Z,8.70
2023-01-11T21:19:50.537Z,7.90
2023-01-11T21:22:19.470Z,8.50
2023-01-11T21:24:48.433Z,8.70
2023-01-11T21:27:17.166Z,8.40
2023-01-11T21:29:45.907Z,8.70
2023-01-11T21:32:14.558Z,8.00
2023-01-11T21:34:43.299Z,8.30
2023-01-11T21:37:12.051Z,8.30
2023-01-11T21:39:40.783Z,8.00
2023-01-11T21:42:09.535Z,8.20
2023-01-11T21:44:38.328Z,8.60
2023-01-11T21:47:07.062Z,8.60
2023-01-11T21:49:35.919Z,8.20
2023-01-11T21:52:04.650Z,8.40
2023-01-11T21:54:33.577Z,7.70
2023-01-11T21:57:02.593Z,8.00
2023-01-11T21:59:33.628Z,7.40
2023-01-11T22:02:02.393Z,7.80
2023-01-11T22:04:31.079Z,8.40
2023-01-11T22:07:00.436Z,7.90
2023-01-11T22:09:29.487Z,7.70
2023-01-11T22:11:58.580Z,7.70
2023-01-11T22:14:27.408Z,8.30
2023-01-11T22:16:56.445Z,7.80
2023-01-11T22:19:25.114Z,7.70
2023-01-11T22:21:53.801Z,7.30
2023-01-11T22:24:22.601Z,7.30
2023-01-11T22:26:51.365Z,7.10
2023-01-11T22:29:20.192Z,7.60
2023-01-11T22:31:55.052Z,7.70
2023-01-11T22:34:24.285Z,7.40
2023-01-11T22:36:54.251Z,7.90
2023-01-11T22:39:24.409Z,7.40
2023-01-11T22:41:53.086Z,7.70
2023-01-11T22:44:21.783Z,7.80
2023-01-11T22:46:50.585Z,7.50
2023-01-11T22:49:19.756Z,12.00
2023-01-11T22:51:48.586Z,7.60
2023-01-11T22:54:17.385Z,7.20
2023-01-11T22:56:46.082Z,8.10
2023-01-11T22:59:14.763Z,7.50
2023-01-11T23:01:43.495Z,7.40
2023-01-11T23:04:13.355Z,7.60
2023-01-11T23:06:43.042Z,7.80
2023-01-11T23:09:16.004Z,7.30
2023-01-11T23:12:04.154Z,6.90
2023-01-11T23:14:33.273Z,7.50
2023-01-11T23:17:06.992Z,7.10
2023-01-11T23:19:36.626Z,7.40
2023-01-11T23:22:05.696Z,7.10
2023-01-11T23:24:35.491Z,7.40
2023-01-11T23:27:04.640Z,7.10
2023-01-11T23:29:33.598Z,7.70
2023-01-11T23:32:02.427Z,6.80
2023-01-11T23:34:31.167Z,6.80
2023-01-11T23:37:00.026Z,7.10
2023-01-11T23:39:28.874Z,7.20
2023-01-11T23:42:16.317Z,7.40
2023-01-11T23:44:46.873Z,7.40
2023-01-11T23:47:21.823Z,7.70
2023-01-11T23:49:51.602Z,7.50
2023-01-11T23:52:21.179Z,8.00
2023-01-11T23:54:49.904Z,7.40
2023-01-11T23:57:19.137Z,8.60
2023-01-11T23:59:47.900Z,8.20
